sensor_id;sensor_type;location;lat;lon;timestamp;pressure;altitude;pressure_sealevel;temperature
15607;BMP180;7865;50.918;4.510;2023-12-14T00:04:26;100310.00;;;8.20
15607;BMP180;7865;50.918;4.510;2023-12-14T00:09:27;100319.00;;;8.20
15607;BMP180;7865;50.918;4.510;2023-12-14T00:14:28;100325.00;;;8.20
15607;BMP180;7865;50.918;4.510;2023-12-14T00:19:29;100330.00;;;8.20
15607;BMP180;7865;50.918;4.510;2023-12-14T00:24:31;100343.00;;;8.20
15607;BMP180;7865;50.918;4.510;2023-12-14T00:29:32;100353.00;;;8.20
15607;BMP180;7865;50.918;4.510;2023-12-14T00:34:33;100358.00;;;8.20
15607;BMP180;7865;50.918;4.510;2023-12-14T00:39:34;100375.00;;;8.20
15607;BMP180;7865;50.918;4.510;2023-12-14T00:44:35;100384.00;;;8.20
15607;BMP180;7865;50.918;4.510;2023-12-14T00:49:37;100394.00;;;8.30
15607;BMP180;7865;50.918;4.510;2023-12-14T00:54:38;100400.00;;;8.30
15607;BMP180;7865;50.918;4.510;2023-12-14T00:59:39;100404.00;;;8.20
15607;BMP180;7865;50.918;4.510;2023-12-14T01:04:41;100426.00;;;8.20
15607;BMP180;7865;50.918;4.510;2023-12-14T01:09:43;100427.00;;;8.20
15607;BMP180;7865;50.918;4.510;2023-12-14T01:14:44;100433.00;;;8.30
15607;BMP180;7865;50.918;4.510;2023-12-14T01:19:45;100451.00;;;8.30
15607;BMP180;7865;50.918;4.510;2023-12-14T01:24:46;100456.00;;;8.30
15607;BMP180;7865;50.918;4.510;2023-12-14T01:29:48;100469.00;;;8.30
15607;BMP180;7865;50.918;4.510;2023-12-14T01:34:49;100487.00;;;8.30
15607;BMP180;7865;50.918;4.510;2023-12-14T01:39:50;100496.00;;;8.30
15607;BMP180;7865;50.918;4.510;2023-12-14T01:44:52;100505.00;;;8.20
15607;BMP180;7865;50.918;4.510;2023-12-14T01:49:53;100519.00;;;8.10
15607;BMP180;7865;50.918;4.510;2023-12-14T01:54:54;100537.00;;;7.90
15607;BMP180;7865;50.918;4.510;2023-12-14T01:59:56;100560.00;;;7.80
15607;BMP180;7865;50.918;4.510;2023-12-14T02:04:57;100564.00;;;7.70
15607;BMP180;7865;50.918;4.510;2023-12-14T02:09:59;100576.00;;;7.60
15607;BMP180;7865;50.918;4.510;2023-12-14T02:15:01;100576.00;;;7.60
15607;BMP180;7865;50.918;4.510;2023-12-14T02:20:03;100594.00;;;7.50
15607;BMP180;7865;50.918;4.510;2023-12-14T02:25:04;100601.00;;;7.50
15607;BMP180;7865;50.918;4.510;2023-12-14T02:30:06;100600.00;;;7.50
15607;BMP180;7865;50.918;4.510;2023-12-14T02:35:08;100617.00;;;7.40
15607;BMP180;7865;50.918;4.510;2023-12-14T02:40:10;100619.00;;;7.40
15607;BMP180;7865;50.918;4.510;2023-12-14T02:45:11;100621.00;;;7.30
15607;BMP180;7865;50.918;4.510;2023-12-14T02:50:13;100629.00;;;7.30
15607;BMP180;7865;50.918;4.510;2023-12-14T02:55:14;100641.00;;;7.30
15607;BMP180;7865;50.918;4.510;2023-12-14T03:00:15;100646.00;;;7.20
15607;BMP180;7865;50.918;4.510;2023-12-14T03:05:16;100648.00;;;7.20
15607;BMP180;7865;50.918;4.510;2023-12-14T03:10:18;100652.00;;;7.20
15607;BMP180;7865;50.918;4.510;2023-12-14T03:15:19;100650.00;;;7.20
15607;BMP180;7865;50.918;4.510;2023-12-14T03:20:21;100665.00;;;7.10
15607;BMP180;7865;50.918;4.510;2023-12-14T03:25:22;100663.00;;;7.10
15607;BMP180;7865;50.918;4.510;2023-12-14T03:30:23;100668.00;;;7.10
15607;BMP180;7865;50.918;4.510;2023-12-14T03:35:25;100681.00;;;7.10
15607;BMP180;7865;50.918;4.510;2023-12-14T03:40:26;100688.00;;;7.00
15607;BMP180;7865;50.918;4.510;2023-12-14T03:45:27;100694.00;;;7.00
15607;BMP180;7865;50.918;4.510;2023-12-14T03:50:28;100700.00;;;6.90
15607;BMP180;7865;50.918;4.510;2023-12-14T03:55:30;100717.00;;;6.80
15607;BMP180;7865;50.918;4.510;2023-12-14T04:00:32;100716.00;;;6.80
15607;BMP180;7865;50.918;4.510;2023-12-14T04:05:33;100738.00;;;6.80
15607;BMP180;7865;50.918;4.510;2023-12-14T04:10:34;100753.00;;;6.70
15607;BMP180;7865;50.918;4.510;2023-12-14T04:15:35;100760.00;;;6.60
15607;BMP180;7865;50.918;4.510;2023-12-14T04:20:36;100780.00;;;6.60
15607;BMP180;7865;50.918;4.510;2023-12-14T04:25:38;100788.00;;;6.50
15607;BMP180;7865;50.918;4.510;2023-12-14T04:30:39;100801.00;;;6.40
15607;BMP180;7865;50.918;4.510;2023-12-14T04:35:40;100819.00;;;6.30
15607;BMP180;7865;50.918;4.510;2023-12-14T04:40:41;100837.00;;;6.30
15607;BMP180;7865;50.918;4.510;2023-12-14T04:45:44;100835.00;;;6.30
15607;BMP180;7865;50.918;4.510;2023-12-14T04:50:45;100853.00;;;6.20
15607;BMP180;7865;50.918;4.510;2023-12-14T04:55:47;100851.00;;;6.10
15607;BMP180;7865;50.918;4.510;2023-12-14T05:00:48;100858.00;;;6.10
15607;BMP180;7865;50.918;4.510;2023-12-14T05:05:49;100868.00;;;6.00
15607;BMP180;7865;50.918;4.510;2023-12-14T05:10:50;100890.00;;;6.00
15607;BMP180;7865;50.918;4.510;2023-12-14T05:15:52;100899.00;;;6.00
15607;BMP180;7865;50.918;4.510;2023-12-14T05:20:53;100908.00;;;6.00
15607;BMP180;7865;50.918;4.510;2023-12-14T05:25:54;100913.00;;;6.00
15607;BMP180;7865;50.918;4.510;2023-12-14T05:30:55;100918.00;;;6.00
15607;BMP180;7865;50.918;4.510;2023-12-14T05:35:57;100932.00;;;6.00
15607;BMP180;7865;50.918;4.510;2023-12-14T05:40:58;100944.00;;;6.00
15607;BMP180;7865;50.918;4.510;2023-12-14T05:45:59;100946.00;;;6.00
15607;BMP180;7865;50.918;4.510;2023-12-14T05:51:02;100953.00;;;6.00
15607;BMP180;7865;50.918;4.510;2023-12-14T05:56:03;100959.00;;;6.00
15607;BMP180;7865;50.918;4.510;2023-12-14T06:01:04;100970.00;;;6.00
15607;BMP180;7865;50.918;4.510;2023-12-14T06:06:06;100988.00;;;6.00
15607;BMP180;7865;50.918;4.510;2023-12-14T06:11:08;100989.00;;;6.00
15607;BMP180;7865;50.918;4.510;2023-12-14T06:16:09;101004.00;;;6.00
15607;BMP180;7865;50.918;4.510;2023-12-14T06:21:13;101020.00;;;6.00
15607;BMP180;7865;50.918;4.510;2023-12-14T06:26:14;101026.00;;;6.00
15607;BMP180;7865;50.918;4.510;2023-12-14T06:31:17;101034.00;;;6.00
15607;BMP180;7865;50.918;4.510;2023-12-14T06:36:18;101043.00;;;6.00
15607;BMP180;7865;50.918;4.510;2023-12-14T06:41:23;101055.00;;;6.00
15607;BMP180;7865;50.918;4.510;2023-12-14T06:46:24;101062.00;;;6.00
15607;BMP180;7865;50.918;4.510;2023-12-14T06:51:26;101082.00;;;6.00
15607;BMP180;7865;50.918;4.510;2023-12-14T06:56:27;101086.00;;;6.00
15607;BMP180;7865;50.918;4.510;2023-12-14T07:01:28;101101.00;;;6.00
15607;BMP180;7865;50.918;4.510;2023-12-14T07:06:29;101102.00;;;5.90
15607;BMP180;7865;50.918;4.510;2023-12-14T07:11:31;101099.00;;;5.90
15607;BMP180;7865;50.918;4.510;2023-12-14T07:16:32;101120.00;;;5.90
15607;BMP180;7865;50.918;4.510;2023-12-14T07:21:34;101111.00;;;5.90
15607;BMP180;7865;50.918;4.510;2023-12-14T07:26:35;101108.00;;;5.80
15607;BMP180;7865;50.918;4.510;2023-12-14T07:31:36;101115.00;;;5.50
15607;BMP180;7865;50.918;4.510;2023-12-14T07:36:37;101117.00;;;5.30
15607;BMP180;7865;50.918;4.510;2023-12-14T07:41:38;101131.00;;;5.20
15607;BMP180;7865;50.918;4.510;2023-12-14T07:46:39;101139.00;;;5.00
15607;BMP180;7865;50.918;4.510;2023-12-14T07:51:43;101159.00;;;5.00
15607;BMP180;7865;50.918;4.510;2023-12-14T07:56:44;101171.00;;;5.00
15607;BMP180;7865;50.918;4.510;2023-12-14T08:01:46;101191.00;;;5.10
15607;BMP180;7865;50.918;4.510;2023-12-14T08:06:47;101206.00;;;5.30
15607;BMP180;7865;50.918;4.510;2023-12-14T08:11:48;101217.00;;;5.40
15607;BMP180;7865;50.918;4.510;2023-12-14T08:16:51;101212.00;;;5.50
15607;BMP180;7865;50.918;4.510;2023-12-14T08:21:53;101227.00;;;5.50
15607;BMP180;7865;50.918;4.510;2023-12-14T08:26:54;101233.00;;;5.40
15607;BMP180;7865;50.918;4.510;2023-12-14T08:31:55;101232.00;;;5.30
15607;BMP180;7865;50.918;4.510;2023-12-14T08:37:01;101238.00;;;5.30
15607;BMP180;7865;50.918;4.510;2023-12-14T08:42:03;101261.00;;;5.40
15607;BMP180;7865;50.918;4.510;2023-12-14T08:47:05;101263.00;;;5.60
15607;BMP180;7865;50.918;4.510;2023-12-14T08:52:06;101279.00;;;5.70
15607;BMP180;7865;50.918;4.510;2023-12-14T08:57:07;101286.00;;;6.00
15607;BMP180;7865;50.918;4.510;2023-12-14T09:02:08;101302.00;;;6.30
15607;BMP180;7865;50.918;4.510;2023-12-14T09:07:10;101310.00;;;7.00
15607;BMP180;7865;50.918;4.510;2023-12-14T09:12:11;101323.00;;;7.50
15607;BMP180;7865;50.918;4.510;2023-12-14T09:17:13;101336.00;;;7.30
15607;BMP180;7865;50.918;4.510;2023-12-14T09:22:14;101340.00;;;7.30
15607;BMP180;7865;50.918;4.510;2023-12-14T09:27:15;101340.00;;;7.30
15607;BMP180;7865;50.918;4.510;2023-12-14T09:32:17;101348.00;;;7.20
15607;BMP180;7865;50.918;4.510;2023-12-14T09:37:18;101355.00;;;7.20
15607;BMP180;7865;50.918;4.510;2023-12-14T09:42:20;101373.00;;;7.20
15607;BMP180;7865;50.918;4.510;2023-12-14T09:47:22;101376.00;;;7.20
15607;BMP180;7865;50.918;4.510;2023-12-14T09:52:23;101377.00;;;7.50
15607;BMP180;7865;50.918;4.510;2023-12-14T09:57:24;101390.00;;;7.60
15607;BMP180;7865;50.918;4.510;2023-12-14T10:02:27;101390.00;;;7.60
15607;BMP180;7865;50.918;4.510;2023-12-14T10:07:30;101404.00;;;7.40
15607;BMP180;7865;50.918;4.510;2023-12-14T10:12:32;101410.00;;;7.30
15607;BMP180;7865;50.918;4.510;2023-12-14T10:17:35;101420.00;;;7.30
15607;BMP180;7865;50.918;4.510;2023-12-14T10:22:37;101427.00;;;7.20
15607;BMP180;7865;50.918;4.510;2023-12-14T10:27:38;101438.00;;;7.30
15607;BMP180;7865;50.918;4.510;2023-12-14T10:32:40;101445.00;;;7.40
15607;BMP180;7865;50.918;4.510;2023-12-14T10:37:43;101439.00;;;7.40
15607;BMP180;7865;50.918;4.510;2023-12-14T10:42:44;101443.00;;;7.40
15607;BMP180;7865;50.918;4.510;2023-12-14T10:47:47;101449.00;;;7.40
15607;BMP180;7865;50.918;4.510;2023-12-14T10:52:51;101461.00;;;7.40
15607;BMP180;7865;50.918;4.510;2023-12-14T10:57:52;101474.00;;;7.50
15607;BMP180;7865;50.918;4.510;2023-12-14T11:02:54;101475.00;;;7.60
15607;BMP180;7865;50.918;4.510;2023-12-14T11:08:01;101474.00;;;7.80
15607;BMP180;7865;50.918;4.510;2023-12-14T11:13:09;101467.00;;;8.00
15607;BMP180;7865;50.918;4.510;2023-12-14T11:28:24;101476.00;;;7.90
15607;BMP180;7865;50.918;4.510;2023-12-14T11:33:28;101488.00;;;7.80
15607;BMP180;7865;50.918;4.510;2023-12-14T11:38:30;101488.00;;;7.80
15607;BMP180;7865;50.918;4.510;2023-12-14T11:43:41;101490.00;;;7.70
15607;BMP180;7865;50.918;4.510;2023-12-14T11:48:56;101489.00;;;7.50
15607;BMP180;7865;50.918;4.510;2023-12-14T11:54:00;101491.00;;;7.40
15607;BMP180;7865;50.918;4.510;2023-12-14T11:59:01;101503.00;;;7.40
15607;BMP180;7865;50.918;4.510;2023-12-14T12:04:11;101507.00;;;7.40
15607;BMP180;7865;50.918;4.510;2023-12-14T12:09:13;101517.00;;;7.30
15607;BMP180;7865;50.918;4.510;2023-12-14T12:14:14;101512.00;;;7.10
15607;BMP180;7865;50.918;4.510;2023-12-14T12:19:15;101520.00;;;7.20
15607;BMP180;7865;50.918;4.510;2023-12-14T12:24:16;101519.00;;;7.20
15607;BMP180;7865;50.918;4.510;2023-12-14T12:29:27;101528.00;;;7.20
15607;BMP180;7865;50.918;4.510;2023-12-14T12:34:29;101526.00;;;7.10
15607;BMP180;7865;50.918;4.510;2023-12-14T12:39:30;101529.00;;;6.80
15607;BMP180;7865;50.918;4.510;2023-12-14T12:44:31;101527.00;;;6.60
15607;BMP180;7865;50.918;4.510;2023-12-14T12:49:32;101536.00;;;6.60
15607;BMP180;7865;50.918;4.510;2023-12-14T12:54:34;101536.00;;;6.90
15607;BMP180;7865;50.918;4.510;2023-12-14T12:59:35;101540.00;;;7.00
15607;BMP180;7865;50.918;4.510;2023-12-14T13:04:36;101538.00;;;7.10
15607;BMP180;7865;50.918;4.510;2023-12-14T13:09:38;101534.00;;;7.20
15607;BMP180;7865;50.918;4.510;2023-12-14T13:14:40;101555.00;;;7.10
15607;BMP180;7865;50.918;4.510;2023-12-14T13:19:41;101553.00;;;7.10
15607;BMP180;7865;50.918;4.510;2023-12-14T13:24:42;101549.00;;;7.40
15607;BMP180;7865;50.918;4.510;2023-12-14T13:29:43;101559.00;;;7.70
15607;BMP180;7865;50.918;4.510;2023-12-14T13:34:46;101568.00;;;7.60
15607;BMP180;7865;50.918;4.510;2023-12-14T13:39:47;101581.00;;;7.30
15607;BMP180;7865;50.918;4.510;2023-12-14T13:44:49;101579.00;;;7.10
15607;BMP180;7865;50.918;4.510;2023-12-14T13:49:51;101578.00;;;7.10
15607;BMP180;7865;50.918;4.510;2023-12-14T13:54:52;101586.00;;;7.10
15607;BMP180;7865;50.918;4.510;2023-12-14T13:59:54;101604.00;;;7.20
15607;BMP180;7865;50.918;4.510;2023-12-14T14:04:55;101606.00;;;7.20
15607;BMP180;7865;50.918;4.510;2023-12-14T14:09:56;101614.00;;;7.10
15607;BMP180;7865;50.918;4.510;2023-12-14T14:14:57;101628.00;;;7.20
15607;BMP180;7865;50.918;4.510;2023-12-14T14:19:58;101627.00;;;7.30
15607;BMP180;7865;50.918;4.510;2023-12-14T14:25:00;101625.00;;;7.30
15607;BMP180;7865;50.918;4.510;2023-12-14T14:30:03;101634.00;;;7.30
15607;BMP180;7865;50.918;4.510;2023-12-14T14:35:05;101646.00;;;7.20
15607;BMP180;7865;50.918;4.510;2023-12-14T14:40:08;101639.00;;;7.20
15607;BMP180;7865;50.918;4.510;2023-12-14T14:45:10;101649.00;;;7.10
15607;BMP180;7865;50.918;4.510;2023-12-14T14:50:12;101659.00;;;7.10
15607;BMP180;7865;50.918;4.510;2023-12-14T14:55:13;101660.00;;;7.10
15607;BMP180;7865;50.918;4.510;2023-12-14T15:00:15;101667.00;;;7.10
15607;BMP180;7865;50.918;4.510;2023-12-14T15:05:16;101673.00;;;7.10
15607;BMP180;7865;50.918;4.510;2023-12-14T15:10:18;101684.00;;;7.10
15607;BMP180;7865;50.918;4.510;2023-12-14T15:15:19;101699.00;;;7.10
15607;BMP180;7865;50.918;4.510;2023-12-14T15:20:20;101707.00;;;7.10
15607;BMP180;7865;50.918;4.510;2023-12-14T15:25:21;101716.00;;;7.00
15607;BMP180;7865;50.918;4.510;2023-12-14T15:30:23;101731.00;;;6.80
15607;BMP180;7865;50.918;4.510;2023-12-14T15:35:24;101730.00;;;6.60
15607;BMP180;7865;50.918;4.510;2023-12-14T15:40:25;101732.00;;;6.50
15607;BMP180;7865;50.918;4.510;2023-12-14T15:45:26;101748.00;;;6.50
15607;BMP180;7865;50.918;4.510;2023-12-14T15:50:29;101752.00;;;6.50
15607;BMP180;7865;50.918;4.510;2023-12-14T15:55:30;101771.00;;;6.50
15607;BMP180;7865;50.918;4.510;2023-12-14T16:00:31;101785.00;;;6.50
15607;BMP180;7865;50.918;4.510;2023-12-14T16:05:36;101783.00;;;6.50
15607;BMP180;7865;50.918;4.510;2023-12-14T16:10:39;101790.00;;;6.50
15607;BMP180;7865;50.918;4.510;2023-12-14T16:15:42;101798.00;;;6.50
15607;BMP180;7865;50.918;4.510;2023-12-14T16:20:43;101801.00;;;6.50
15607;BMP180;7865;50.918;4.510;2023-12-14T16:25:45;101808.00;;;6.40
15607;BMP180;7865;50.918;4.510;2023-12-14T16:30:49;101813.00;;;6.40
15607;BMP180;7865;50.918;4.510;2023-12-14T16:35:51;101819.00;;;6.30
15607;BMP180;7865;50.918;4.510;2023-12-14T16:40:52;101824.00;;;6.30
15607;BMP180;7865;50.918;4.510;2023-12-14T16:45:53;101825.00;;;6.30
15607;BMP180;7865;50.918;4.510;2023-12-14T16:50:54;101821.00;;;6.30
15607;BMP180;7865;50.918;4.510;2023-12-14T16:55:56;101830.00;;;6.20
15607;BMP180;7865;50.918;4.510;2023-12-14T17:01:02;101841.00;;;6.10
15607;BMP180;7865;50.918;4.510;2023-12-14T17:06:04;101848.00;;;6.10
15607;BMP180;7865;50.918;4.510;2023-12-14T17:11:09;101850.00;;;6.10
15607;BMP180;7865;50.918;4.510;2023-12-14T17:16:14;101860.00;;;5.90
15607;BMP180;7865;50.918;4.510;2023-12-14T17:21:23;101862.00;;;5.80
15607;BMP180;7865;50.918;4.510;2023-12-14T17:26:25;101873.00;;;5.60
15607;BMP180;7865;50.918;4.510;2023-12-14T17:31:28;101878.00;;;5.50
15607;BMP180;7865;50.918;4.510;2023-12-14T17:36:29;101879.00;;;5.30
15607;BMP180;7865;50.918;4.510;2023-12-14T17:41:31;101882.00;;;5.20
15607;BMP180;7865;50.918;4.510;2023-12-14T17:46:32;101888.00;;;5.30
15607;BMP180;7865;50.918;4.510;2023-12-14T17:51:38;101898.00;;;5.30
15607;BMP180;7865;50.918;4.510;2023-12-14T17:56:40;101906.00;;;5.40
15607;BMP180;7865;50.918;4.510;2023-12-14T18:01:45;101917.00;;;5.40
15607;BMP180;7865;50.918;4.510;2023-12-14T18:06:49;101921.00;;;5.40
15607;BMP180;7865;50.918;4.510;2023-12-14T18:11:51;101912.00;;;5.30
15607;BMP180;7865;50.918;4.510;2023-12-14T18:16:52;101912.00;;;5.20
15607;BMP180;7865;50.918;4.510;2023-12-14T18:21:53;101917.00;;;5.20
15607;BMP180;7865;50.918;4.510;2023-12-14T18:26:54;101925.00;;;5.20
15607;BMP180;7865;50.918;4.510;2023-12-14T18:31:55;101943.00;;;5.40
15607;BMP180;7865;50.918;4.510;2023-12-14T18:36:57;101948.00;;;5.50
15607;BMP180;7865;50.918;4.510;2023-12-14T18:41:58;101967.00;;;5.70
15607;BMP180;7865;50.918;4.510;2023-12-14T18:46:59;101944.00;;;5.70
15607;BMP180;7865;50.918;4.510;2023-12-14T18:52:01;101959.00;;;5.80
15607;BMP180;7865;50.918;4.510;2023-12-14T18:57:03;101955.00;;;5.90
15607;BMP180;7865;50.918;4.510;2023-12-14T19:02:04;101966.00;;;6.00
15607;BMP180;7865;50.918;4.510;2023-12-14T19:07:06;101970.00;;;6.10
15607;BMP180;7865;50.918;4.510;2023-12-14T19:12:07;101977.00;;;6.20
15607;BMP180;7865;50.918;4.510;2023-12-14T19:17:08;101989.00;;;6.20
15607;BMP180;7865;50.918;4.510;2023-12-14T19:22:09;101990.00;;;6.30
15607;BMP180;7865;50.918;4.510;2023-12-14T19:27:10;101996.00;;;6.30
15607;BMP180;7865;50.918;4.510;2023-12-14T19:32:13;102003.00;;;6.30
15607;BMP180;7865;50.918;4.510;2023-12-14T19:37:15;102012.00;;;6.30
15607;BMP180;7865;50.918;4.510;2023-12-14T19:42:16;102009.00;;;6.30
15607;BMP180;7865;50.918;4.510;2023-12-14T19:47:17;102016.00;;;6.40
15607;BMP180;7865;50.918;4.510;2023-12-14T19:52:18;102028.00;;;6.40
15607;BMP180;7865;50.918;4.510;2023-12-14T19:57:19;102025.00;;;6.40
15607;BMP180;7865;50.918;4.510;2023-12-14T20:02:21;102025.00;;;6.40
15607;BMP180;7865;50.918;4.510;2023-12-14T20:07:22;102032.00;;;6.50
15607;BMP180;7865;50.918;4.510;2023-12-14T20:12:26;102043.00;;;6.50
15607;BMP180;7865;50.918;4.510;2023-12-14T20:17:27;102051.00;;;6.50
15607;BMP180;7865;50.918;4.510;2023-12-14T20:22:28;102059.00;;;6.50
15607;BMP180;7865;50.918;4.510;2023-12-14T20:27:33;102070.00;;;6.50
15607;BMP180;7865;50.918;4.510;2023-12-14T20:32:35;102077.00;;;6.50
15607;BMP180;7865;50.918;4.510;2023-12-14T20:37:36;102080.00;;;6.60
15607;BMP180;7865;50.918;4.510;2023-12-14T20:42:38;102093.00;;;6.60
15607;BMP180;7865;50.918;4.510;2023-12-14T20:47:39;102096.00;;;6.60
15607;BMP180;7865;50.918;4.510;2023-12-14T20:52:41;102094.00;;;6.50
15607;BMP180;7865;50.918;4.510;2023-12-14T20:57:43;102095.00;;;6.50
15607;BMP180;7865;50.918;4.510;2023-12-14T21:02:50;102103.00;;;6.40
15607;BMP180;7865;50.918;4.510;2023-12-14T21:20:24;102116.00;;;6.20
15607;BMP180;7865;50.918;4.510;2023-12-14T21:25:28;102115.00;;;6.20
15607;BMP180;7865;50.918;4.510;2023-12-14T21:30:38;102117.00;;;6.10
15607;BMP180;7865;50.918;4.510;2023-12-14T21:35:39;102119.00;;;6.10
15607;BMP180;7865;50.918;4.510;2023-12-14T21:40:41;102131.00;;;6.10
15607;BMP180;7865;50.918;4.510;2023-12-14T21:45:42;102133.00;;;6.10
15607;BMP180;7865;50.918;4.510;2023-12-14T21:50:44;102128.00;;;6.10
15607;BMP180;7865;50.918;4.510;2023-12-14T21:55:45;102128.00;;;6.10
15607;BMP180;7865;50.918;4.510;2023-12-14T22:00:46;102122.00;;;6.10
15607;BMP180;7865;50.918;4.510;2023-12-14T22:05:48;102132.00;;;6.10
15607;BMP180;7865;50.918;4.510;2023-12-14T22:10:50;102129.00;;;6.20
15607;BMP180;7865;50.918;4.510;2023-12-14T22:15:51;102126.00;;;6.20
15607;BMP180;7865;50.918;4.510;2023-12-14T22:20:52;102134.00;;;6.20
15607;BMP180;7865;50.918;4.510;2023-12-14T22:25:54;102144.00;;;6.20
15607;BMP180;7865;50.918;4.510;2023-12-14T22:30:55;102153.00;;;6.20
15607;BMP180;7865;50.918;4.510;2023-12-14T22:35:56;102153.00;;;6.30
15607;BMP180;7865;50.918;4.510;2023-12-14T22:40:57;102153.00;;;6.30
15607;BMP180;7865;50.918;4.510;2023-12-14T22:46:00;102159.00;;;6.30
15607;BMP180;7865;50.918;4.510;2023-12-14T22:51:01;102184.00;;;6.30
15607;BMP180;7865;50.918;4.510;2023-12-14T22:56:03;102177.00;;;6.30
15607;BMP180;7865;50.918;4.510;2023-12-14T23:01:04;102186.00;;;6.40
15607;BMP180;7865;50.918;4.510;2023-12-14T23:06:06;102189.00;;;6.40
15607;BMP180;7865;50.918;4.510;2023-12-14T23:11:07;102204.00;;;6.40
15607;BMP180;7865;50.918;4.510;2023-12-14T23:16:09;102210.00;;;6.40
15607;BMP180;7865;50.918;4.510;2023-12-14T23:21:10;102209.00;;;6.50
15607;BMP180;7865;50.918;4.510;2023-12-14T23:26:11;102210.00;;;6.50
15607;BMP180;7865;50.918;4.510;2023-12-14T23:31:12;102223.00;;;6.50
15607;BMP180;7865;50.918;4.510;2023-12-14T23:36:14;102227.00;;;6.50
15607;BMP180;7865;50.918;4.510;2023-12-14T23:41:16;102237.00;;;6.50
15607;BMP180;7865;50.918;4.510;2023-12-14T23:46:17;102228.00;;;6.60
15607;BMP180;7865;50.918;4.510;2023-12-14T23:51:19;102234.00;;;6.60
15607;BMP180;7865;50.918;4.510;2023-12-14T23:56:20;102231.00;;;6.60
